createdAt,value
2023-05-12T00:00:33.778Z,70.00
2023-05-12T00:03:00.395Z,70.00
2023-05-12T00:05:26.949Z,70.00
2023-05-12T00:07:53.413Z,70.00
2023-05-12T00:10:20.135Z,69.90
2023-05-12T00:12:46.811Z,69.70
2023-05-12T00:15:13.307Z,70.70
2023-05-12T00:17:39.844Z,69.90
2023-05-12T00:20:06.358Z,70.00
2023-05-12T00:22:32.828Z,70.00
2023-05-12T00:24:59.284Z,69.80
2023-05-12T00:27:25.753Z,69.90
2023-05-12T00:29:52.227Z,69.80
2023-05-12T00:32:18.694Z,69.90
2023-05-12T00:34:45.198Z,69.80
2023-05-12T00:37:13.889Z,69.80
2023-05-12T00:39:40.383Z,69.90
2023-05-12T00:42:06.891Z,69.80
2023-05-12T00:44:33.390Z,70.00
2023-05-12T00:46:59.891Z,69.90
2023-05-12T00:49:26.363Z,70.00
2023-05-12T00:51:52.861Z,69.80
2023-05-12T00:54:19.341Z,69.80
2023-05-12T00:56:45.802Z,69.90
2023-05-12T00:59:12.259Z,70.00
2023-05-12T01:01:38.756Z,69.80
2023-05-12T01:04:05.255Z,69.90
2023-05-12T01:06:31.740Z,69.90
2023-05-12T01:08:58.219Z,69.80
2023-05-12T01:11:24.706Z,69.90
2023-05-12T01:13:51.171Z,69.90
2023-05-12T01:16:17.651Z,70.00
2023-05-12T01:18:44.259Z,69.80
2023-05-12T01:21:10.744Z,69.80
2023-05-12T01:23:37.239Z,69.80
2023-05-12T01:26:03.728Z,69.90
2023-05-12T01:28:30.210Z,69.90
2023-05-12T01:30:56.731Z,69.90
2023-05-12T01:33:23.212Z,69.80
2023-05-12T01:35:49.726Z,70.00
2023-05-12T01:38:16.228Z,70.00
2023-05-12T01:40:42.716Z,70.00
2023-05-12T01:43:09.215Z,70.00
2023-05-12T01:45:35.697Z,70.00
2023-05-12T01:48:02.254Z,70.00
2023-05-12T01:50:28.763Z,69.80
2023-05-12T01:52:55.271Z,70.00
2023-05-12T01:55:21.741Z,70.00
2023-05-12T01:57:48.217Z,70.10
2023-05-12T02:00:14.687Z,70.10
2023-05-12T02:02:43.088Z,70.00
2023-05-12T02:05:09.877Z,70.00
2023-05-12T02:07:36.364Z,70.00
2023-05-12T02:10:03.048Z,69.90
2023-05-12T02:12:29.530Z,70.00
2023-05-12T02:14:55.993Z,70.00
2023-05-12T02:17:22.494Z,70.00
2023-05-12T02:19:48.994Z,70.10
2023-05-12T02:22:15.473Z,70.10
2023-05-12T02:24:41.945Z,70.00
2023-05-12T02:27:08.423Z,70.10
2023-05-12T02:29:34.914Z,70.10
2023-05-12T02:32:01.464Z,70.10
2023-05-12T02:34:27.982Z,70.10
2023-05-12T02:36:54.452Z,70.00
2023-05-12T02:39:20.927Z,70.20
2023-05-12T02:41:47.406Z,70.10
2023-05-12T02:44:13.884Z,70.10
2023-05-12T02:46:40.361Z,70.10
2023-05-12T02:49:06.854Z,70.10
2023-05-12T02:51:33.323Z,70.20
2023-05-12T02:53:59.830Z,70.20
2023-05-12T02:56:26.315Z,70.20
2023-05-12T02:58:52.797Z,70.10
2023-05-12T03:01:19.311Z,70.10
2023-05-12T03:03:45.974Z,70.10
2023-05-12T03:06:12.575Z,70.20
2023-05-12T03:08:39.092Z,70.20
2023-05-12T03:11:05.594Z,70.20
2023-05-12T03:13:32.079Z,70.10
2023-05-12T03:15:58.567Z,70.20
2023-05-12T03:18:25.061Z,70.20
2023-05-12T03:20:51.564Z,70.20
2023-05-12T03:23:18.075Z,70.10
2023-05-12T03:25:44.543Z,70.20
2023-05-12T03:28:11.014Z,70.20
2023-05-12T03:30:37.499Z,70.30
2023-05-12T03:33:04.028Z,70.10
2023-05-12T03:35:30.606Z,70.20
2023-05-12T03:37:57.075Z,70.20
2023-05-12T03:40:23.649Z,70.20
2023-05-12T03:42:50.172Z,70.30
2023-05-12T03:45:16.662Z,70.20
2023-05-12T03:47:43.230Z,70.20
2023-05-12T03:50:09.779Z,70.20
2023-05-12T03:52:36.264Z,70.20
2023-05-12T03:55:02.750Z,70.10
2023-05-12T03:57:29.225Z,70.20
2023-05-12T03:59:55.718Z,70.20
2023-05-12T04:02:22.291Z,70.30
2023-05-12T04:04:48.807Z,70.30
2023-05-12T04:07:15.277Z,70.20
2023-05-12T04:09:41.737Z,70.30
2023-05-12T04:12:08.232Z,70.20
2023-05-12T04:14:42.213Z,70.20
2023-05-12T04:17:09.533Z,70.30
2023-05-12T04:19:36.019Z,70.30
2023-05-12T04:22:02.529Z,70.20
2023-05-12T04:24:29.019Z,70.20
2023-05-12T04:26:55.500Z,70.20
2023-05-12T04:29:21.974Z,70.30
2023-05-12T04:31:48.506Z,70.20
2023-05-12T04:34:15.039Z,70.20
2023-05-12T04:36:41.534Z,70.30
2023-05-12T04:39:08.025Z,70.20
2023-05-12T04:41:34.521Z,70.20
2023-05-12T04:44:01.064Z,70.20
2023-05-12T04:46:27.610Z,70.30
2023-05-12T04:48:54.126Z,70.50
2023-05-12T04:51:20.596Z,70.40
2023-05-12T04:53:47.066Z,70.40
2023-05-12T04:56:13.549Z,70.20
2023-05-12T04:58:40.040Z,70.10
2023-05-12T05:01:06.525Z,70.20
2023-05-12T05:03:33.133Z,70.00
2023-05-12T05:05:59.735Z,70.10
2023-05-12T05:08:26.220Z,70.20
2023-05-12T05:10:52.694Z,70.20
2023-05-12T05:13:19.212Z,70.10
2023-05-12T05:15:45.728Z,70.10
2023-05-12T05:18:12.337Z,70.10
2023-05-12T05:20:40.789Z,70.10
2023-05-12T05:23:09.638Z,70.00
2023-05-12T05:25:36.132Z,70.10
2023-05-12T05:28:02.614Z,70.10
2023-05-12T05:30:29.093Z,70.10
2023-05-12T05:32:55.616Z,70.80
2023-05-12T05:35:22.302Z,70.10
2023-05-12T05:37:48.923Z,70.00
2023-05-12T05:40:15.400Z,70.00
2023-05-12T05:42:41.926Z,70.10
2023-05-12T05:45:08.428Z,70.00
2023-05-12T05:47:34.960Z,69.80
2023-05-12T05:50:01.475Z,70.00
2023-05-12T05:52:27.960Z,70.00
2023-05-12T05:54:54.410Z,69.90
2023-05-12T05:57:20.906Z,69.90
2023-05-12T05:59:47.378Z,69.80
2023-05-12T06:02:13.908Z,69.90
2023-05-12T06:04:40.428Z,69.80
2023-05-12T06:07:06.900Z,69.80
2023-05-12T06:09:33.434Z,69.90
2023-05-12T06:11:59.916Z,69.80
2023-05-12T06:14:26.433Z,69.90
2023-05-12T06:16:52.945Z,70.00
2023-05-12T06:19:19.460Z,69.90
2023-05-12T06:21:45.936Z,69.80
2023-05-12T06:24:12.438Z,69.90
2023-05-12T06:26:38.930Z,70.00
2023-05-12T06:29:05.429Z,69.90
2023-05-12T06:31:31.937Z,70.00
2023-05-12T06:33:58.459Z,69.90
2023-05-12T06:36:24.957Z,69.80
2023-05-12T06:38:51.451Z,69.80
2023-05-12T06:41:17.935Z,69.80
2023-05-12T06:43:44.423Z,69.80
2023-05-12T06:46:10.930Z,69.80
2023-05-12T06:48:37.404Z,69.80
2023-05-12T06:51:03.874Z,69.80
2023-05-12T06:53:30.352Z,69.80
2023-05-12T06:55:56.826Z,69.90
2023-05-12T06:58:23.308Z,69.80
2023-05-12T07:00:49.805Z,69.80
2023-05-12T07:03:16.381Z,69.70
2023-05-12T07:05:42.995Z,70.00
2023-05-12T07:08:09.481Z,70.00
2023-05-12T07:10:35.944Z,69.90
2023-05-12T07:13:08.219Z,69.80
2023-05-12T07:15:34.709Z,69.90
2023-05-12T07:18:01.210Z,69.90
2023-05-12T07:20:27.727Z,69.90
2023-05-12T07:22:54.208Z,70.00
2023-05-12T07:25:20.942Z,69.80
2023-05-12T07:27:47.557Z,69.80
2023-05-12T07:30:14.051Z,69.90
2023-05-12T07:32:40.612Z,70.00
2023-05-12T07:35:07.153Z,69.90
2023-05-12T07:37:33.627Z,69.70
2023-05-12T07:40:00.107Z,69.80
2023-05-12T07:42:26.596Z,69.90
2023-05-12T07:44:53.122Z,69.80
2023-05-12T07:47:19.583Z,69.80
2023-05-12T07:49:46.065Z,69.90
2023-05-12T07:52:12.544Z,69.90
2023-05-12T07:54:39.017Z,70.00
2023-05-12T07:57:05.503Z,70.00
2023-05-12T07:59:32.072Z,69.80
2023-05-12T08:01:58.590Z,70.00
2023-05-12T08:04:25.105Z,69.80
2023-05-12T08:06:51.671Z,69.80
2023-05-12T08:09:18.165Z,69.80
2023-05-12T08:11:47.025Z,69.80
2023-05-12T08:14:14.641Z,69.80
2023-05-12T08:16:41.228Z,69.80
2023-05-12T08:19:07.768Z,69.80
2023-05-12T08:21:34.306Z,69.70
2023-05-12T08:24:00.778Z,69.80
2023-05-12T08:26:27.275Z,69.90
2023-05-12T08:28:54.018Z,69.90
2023-05-12T08:31:20.590Z,70.00
2023-05-12T08:33:51.695Z,69.90
2023-05-12T08:36:20.732Z,69.90
2023-05-12T08:38:47.231Z,69.90
2023-05-12T08:41:13.758Z,69.80
2023-05-12T08:43:40.318Z,69.80
2023-05-12T08:46:06.851Z,69.80
2023-05-12T08:48:33.347Z,69.70
2023-05-12T08:50:59.832Z,69.70
2023-05-12T08:53:26.335Z,69.70
2023-05-12T08:57:09.125Z,69.60
2023-05-12T08:58:42.159Z,69.60
2023-05-12T09:01:09.026Z,69.60
2023-05-12T09:03:35.582Z,69.60
2023-05-12T09:06:02.074Z,69.90
2023-05-12T09:08:28.561Z,69.50
2023-05-12T09:10:55.035Z,69.50
2023-05-12T09:13:21.521Z,69.40
2023-05-12T09:15:48.080Z,69.50
2023-05-12T09:18:14.584Z,69.40
2023-05-12T09:20:41.057Z,69.40
2023-05-12T09:23:07.548Z,69.40
2023-05-12T09:25:33.989Z,69.30
2023-05-12T09:28:00.473Z,69.40
2023-05-12T09:30:26.958Z,69.40
2023-05-12T09:32:53.470Z,69.40
2023-05-12T09:35:20.156Z,69.40
2023-05-12T09:37:46.873Z,69.30
2023-05-12T09:40:13.350Z,69.30
2023-05-12T09:42:39.842Z,69.30
2023-05-12T09:45:06.312Z,69.30
2023-05-12T09:47:32.817Z,70.10
2023-05-12T09:49:59.329Z,69.30
2023-05-12T09:52:25.834Z,69.30
2023-05-12T09:54:52.327Z,69.20
2023-05-12T09:57:18.794Z,69.30
2023-05-12T09:59:45.290Z,69.20
2023-05-12T10:02:11.784Z,69.20
2023-05-12T10:04:38.301Z,69.20
2023-05-12T10:07:04.803Z,69.20
2023-05-12T10:09:31.332Z,69.30
2023-05-12T10:11:57.788Z,69.30
2023-05-12T10:14:24.287Z,69.20
2023-05-12T10:16:50.789Z,69.30
2023-05-12T10:19:17.308Z,69.30
2023-05-12T10:21:43.818Z,69.20
2023-05-12T10:24:10.336Z,69.20
2023-05-12T10:26:36.826Z,69.30
2023-05-12T10:29:03.322Z,69.20
2023-05-12T10:31:30.125Z,69.20
2023-05-12T10:33:56.692Z,70.00
2023-05-12T10:36:23.156Z,69.10
2023-05-12T10:38:49.694Z,69.10
2023-05-12T10:41:16.226Z,69.20
2023-05-12T10:43:42.715Z,69.20
2023-05-12T10:46:09.260Z,69.10
2023-05-12T10:48:35.792Z,69.20
2023-05-12T10:51:02.274Z,69.20
2023-05-12T10:53:41.300Z,69.30
2023-05-12T10:56:12.091Z,69.20
2023-05-12T10:58:39.113Z,69.20
2023-05-12T11:01:06.235Z,69.10
2023-05-12T11:03:33.986Z,69.20
2023-05-12T11:06:01.390Z,69.10
2023-05-12T11:08:28.438Z,69.20
2023-05-12T11:10:55.194Z,68.90
2023-05-12T11:13:21.710Z,68.90
2023-05-12T11:15:48.201Z,69.00
2023-05-12T11:18:14.727Z,68.80
2023-05-12T11:20:41.226Z,68.70
2023-05-12T11:23:07.698Z,68.70
2023-05-12T11:25:34.282Z,68.60
2023-05-12T11:28:00.778Z,68.50
2023-05-12T11:30:27.246Z,68.50
2023-05-12T11:32:53.763Z,68.50
2023-05-12T11:35:20.388Z,68.40
2023-05-12T11:37:47.005Z,68.40
2023-05-12T11:40:13.529Z,68.50
2023-05-12T11:42:40.494Z,68.30
2023-05-12T11:45:06.983Z,68.20
2023-05-12T11:47:33.539Z,68.20
2023-05-12T11:50:00.057Z,68.40
2023-05-12T11:52:26.884Z,68.50
2023-05-12T11:54:53.410Z,68.30
2023-05-12T11:57:19.900Z,68.20
2023-05-12T11:59:46.377Z,68.20
2023-05-12T12:02:12.894Z,68.10
2023-05-12T12:04:42.193Z,68.10
2023-05-12T12:07:08.820Z,68.10
2023-05-12T12:09:35.296Z,68.10
2023-05-12T12:12:01.785Z,68.30
2023-05-12T12:14:28.262Z,68.60
2023-05-12T12:16:54.740Z,68.10
2023-05-12T12:19:21.222Z,68.20
2023-05-12T12:21:47.715Z,68.30
2023-05-12T12:24:14.190Z,68.20
2023-05-12T12:26:40.672Z,68.20
2023-05-12T12:29:07.138Z,68.30
2023-05-12T12:31:33.660Z,68.30
2023-05-12T12:34:00.183Z,68.30
2023-05-12T12:36:26.680Z,68.30
2023-05-12T12:38:53.165Z,68.30
2023-05-12T12:41:19.654Z,68.20
2023-05-12T12:43:46.138Z,68.20
2023-05-12T12:46:12.611Z,68.40
2023-05-12T12:48:39.064Z,68.20
2023-05-12T12:51:05.537Z,68.30
2023-05-12T12:53:32.044Z,68.20
2023-05-12T12:55:58.524Z,68.30
2023-05-12T12:58:25.040Z,68.30
2023-05-12T13:00:51.565Z,68.30
2023-05-12T13:03:20.179Z,68.20
2023-05-12T13:05:46.964Z,68.20
2023-05-12T13:08:13.444Z,68.30
2023-05-12T13:10:39.898Z,68.50
2023-05-12T13:13:06.374Z,68.30
2023-05-12T13:15:32.850Z,68.30
2023-05-12T13:17:59.361Z,68.30
2023-05-12T13:20:25.916Z,68.30
2023-05-12T13:22:52.395Z,68.20
2023-05-12T13:25:19.120Z,68.40
2023-05-12T13:27:45.743Z,68.30
2023-05-12T13:30:13.791Z,68.40
2023-05-12T13:32:40.560Z,68.50
2023-05-12T13:35:07.085Z,68.50
2023-05-12T13:37:33.554Z,68.50
2023-05-12T13:40:00.046Z,68.50
2023-05-12T13:42:26.515Z,68.40
2023-05-12T13:44:53.066Z,68.40
2023-05-12T13:47:19.547Z,68.40
2023-05-12T13:49:46.018Z,68.40
2023-05-12T13:52:12.489Z,68.40
2023-05-12T13:54:39.011Z,68.30
2023-05-12T13:57:05.500Z,68.40
2023-05-12T13:59:31.977Z,68.50
2023-05-12T14:01:58.498Z,68.50
2023-05-12T14:04:25.050Z,68.50
2023-05-12T14:06:51.558Z,68.50
2023-05-12T14:09:18.075Z,68.50
2023-05-12T14:11:44.589Z,68.50
2023-05-12T14:14:11.079Z,68.40
2023-05-12T14:16:37.647Z,68.40
2023-05-12T14:19:04.188Z,68.50
2023-05-12T14:21:30.712Z,68.40
2023-05-12T14:23:57.203Z,68.40
2023-05-12T14:26:23.684Z,68.50
2023-05-12T14:28:50.326Z,68.30
2023-05-12T14:31:16.965Z,68.70
2023-05-12T14:33:43.501Z,68.70
2023-05-12T14:36:10.005Z,68.70
2023-05-12T14:38:36.507Z,68.60
2023-05-12T14:41:03.017Z,68.70
2023-05-12T14:43:32.678Z,68.70
2023-05-12T14:45:59.210Z,68.70
2023-05-12T14:48:25.763Z,68.90
2023-05-12T14:50:56.728Z,68.80
2023-05-12T14:53:23.223Z,68.90
2023-05-12T14:55:49.721Z,68.80
2023-05-12T14:58:16.205Z,68.80
2023-05-12T15:00:42.666Z,68.90
2023-05-12T15:03:09.301Z,68.80
2023-05-12T15:05:52.698Z,68.90
2023-05-12T15:08:19.718Z,68.80
2023-05-12T15:10:46.186Z,68.60
2023-05-12T15:13:12.690Z,68.70
2023-05-12T15:15:39.146Z,68.80
2023-05-12T15:18:05.699Z,68.70
2023-05-12T15:20:32.199Z,68.70
2023-05-12T15:22:58.687Z,69.10
2023-05-12T15:25:25.162Z,68.90
2023-05-12T15:27:51.655Z,69.20
2023-05-12T15:30:18.123Z,69.00
2023-05-12T15:32:44.648Z,69.20
2023-05-12T15:35:11.147Z,69.00
2023-05-12T15:37:37.639Z,68.90
2023-05-12T15:40:04.108Z,68.80
2023-05-12T15:42:33.331Z,69.20
2023-05-12T15:45:00.058Z,68.70
2023-05-12T15:47:26.586Z,68.70
2023-05-12T15:49:53.221Z,68.80
2023-05-12T15:52:19.705Z,68.50
2023-05-12T15:54:46.206Z,68.60
2023-05-12T15:57:12.662Z,68.70
2023-05-12T15:59:39.153Z,68.90
2023-05-12T16:02:05.722Z,69.00
2023-05-12T16:04:32.239Z,68.80
2023-05-12T16:06:58.693Z,69.00
2023-05-12T16:09:26.713Z,69.00
2023-05-12T16:11:53.177Z,69.00
2023-05-12T16:14:19.681Z,68.90
2023-05-12T16:16:46.211Z,68.80
2023-05-12T16:19:12.765Z,68.70
2023-05-12T16:21:39.320Z,68.70
2023-05-12T16:24:07.741Z,68.70
2023-05-12T16:26:38.788Z,68.70
2023-05-12T16:29:05.238Z,68.60
2023-05-12T16:31:32.712Z,68.70
2023-05-12T16:33:59.211Z,68.70
2023-05-12T16:36:25.718Z,68.70
2023-05-12T16:38:52.187Z,68.70
2023-05-12T16:41:18.692Z,68.70
2023-05-12T16:43:45.159Z,68.60
2023-05-12T16:46:11.705Z,68.60
2023-05-12T16:48:38.302Z,69.30
2023-05-12T16:51:04.832Z,68.40
2023-05-12T16:53:31.313Z,68.50
2023-05-12T16:55:57.863Z,68.60
2023-05-12T16:58:24.337Z,68.60
2023-05-12T17:00:50.836Z,68.50
2023-05-12T17:03:17.445Z,68.60
2023-05-12T17:05:43.969Z,68.50
2023-05-12T17:08:10.439Z,68.50
2023-05-12T17:10:36.915Z,68.20
2023-05-12T17:13:03.389Z,68.60
2023-05-12T17:15:29.871Z,68.70
2023-05-12T17:17:56.357Z,68.70
2023-05-12T17:20:23.017Z,68.70
2023-05-12T17:22:49.682Z,69.00
2023-05-12T17:25:16.162Z,68.80
2023-05-12T17:27:42.630Z,69.00
2023-05-12T17:30:09.120Z,69.10
2023-05-12T17:32:35.629Z,68.90
2023-05-12T17:35:02.145Z,69.00
2023-05-12T17:37:28.675Z,69.00
2023-05-12T17:39:55.176Z,69.10
2023-05-12T17:42:21.666Z,69.20
2023-05-12T17:44:48.240Z,69.10
2023-05-12T17:47:14.817Z,69.00
2023-05-12T17:49:41.313Z,69.20
2023-05-12T17:52:07.794Z,69.10
2023-05-12T17:54:34.266Z,69.00
2023-05-12T17:57:00.751Z,69.20
2023-05-12T17:59:27.212Z,69.80
2023-05-12T18:01:53.729Z,69.10
2023-05-12T18:04:20.202Z,69.10
2023-05-12T18:06:46.674Z,69.20
2023-05-12T18:09:13.151Z,69.20
2023-05-12T18:11:44.817Z,69.20
2023-05-12T18:14:11.303Z,69.20
2023-05-12T18:16:37.823Z,69.20
2023-05-12T18:19:04.441Z,69.20
2023-05-12T18:21:30.967Z,69.20
2023-05-12T18:23:57.443Z,69.20
2023-05-12T18:26:23.925Z,69.30
2023-05-12T18:28:50.408Z,69.30
2023-05-12T18:31:16.942Z,69.20
2023-05-12T18:33:44.822Z,69.30
2023-05-12T18:36:12.390Z,69.30
2023-05-12T18:38:38.874Z,69.30
2023-05-12T18:41:05.342Z,69.30
2023-05-12T18:43:31.834Z,69.30
2023-05-12T18:45:58.330Z,69.30
2023-05-12T18:48:24.850Z,69.40
2023-05-12T18:50:51.333Z,69.30
2023-05-12T18:53:17.808Z,69.40
2023-05-12T18:55:44.339Z,69.20
2023-05-12T18:58:10.833Z,69.20
2023-05-12T19:00:37.302Z,69.40
2023-05-12T19:03:03.874Z,69.30
2023-05-12T19:05:30.426Z,69.30
2023-05-12T19:07:56.940Z,69.30
2023-05-12T19:10:23.413Z,69.30
2023-05-12T19:12:49.927Z,69.40
2023-05-12T19:15:16.379Z,69.40
2023-05-12T19:17:42.978Z,69.40
2023-05-12T19:20:09.487Z,69.40
2023-05-12T19:22:35.975Z,69.50
2023-05-12T19:25:02.462Z,69.60
2023-05-12T19:27:32.876Z,69.60
2023-05-12T19:29:59.337Z,69.70
2023-05-12T19:32:25.818Z,69.70
2023-05-12T19:34:52.325Z,69.70
2023-05-12T19:37:18.803Z,69.70
2023-05-12T19:39:45.290Z,69.60
2023-05-12T19:42:11.762Z,69.60
2023-05-12T19:44:38.244Z,69.60
2023-05-12T19:47:04.920Z,69.60
2023-05-12T19:49:31.468Z,69.60
2023-05-12T19:51:58.186Z,69.60
2023-05-12T19:54:24.721Z,69.60
2023-05-12T19:56:51.167Z,69.60
2023-05-12T19:59:17.668Z,69.50
2023-05-12T20:01:44.235Z,69.40
2023-05-12T20:04:10.807Z,69.40
2023-05-12T20:06:37.278Z,69.40
2023-05-12T20:09:03.752Z,69.40
2023-05-12T20:11:30.233Z,69.50
2023-05-12T20:13:56.728Z,69.30
2023-05-12T20:16:23.268Z,69.40
2023-05-12T20:18:49.803Z,69.20
2023-05-12T20:21:16.333Z,69.10
2023-05-12T20:23:42.816Z,69.10
2023-05-12T20:26:09.354Z,69.00
2023-05-12T20:28:35.826Z,69.10
2023-05-12T20:31:02.355Z,69.10
2023-05-12T20:33:28.842Z,69.00
2023-05-12T20:35:55.326Z,69.00
2023-05-12T20:38:21.796Z,69.00
2023-05-12T20:40:48.292Z,69.00
2023-05-12T20:43:14.751Z,69.70
2023-05-12T20:45:41.358Z,69.00
2023-05-12T20:48:07.963Z,68.90
2023-05-12T20:50:34.494Z,69.00
2023-05-12T20:53:00.971Z,68.80
2023-05-12T20:55:27.471Z,68.90
2023-05-12T20:57:53.974Z,68.90
2023-05-12T21:00:20.458Z,69.00
2023-05-12T21:02:46.980Z,69.00
2023-05-12T21:05:13.462Z,69.00
2023-05-12T21:07:39.933Z,69.00
2023-05-12T21:10:06.420Z,69.00
2023-05-12T21:12:32.928Z,68.90
2023-05-12T21:14:59.406Z,68.90
2023-05-12T21:17:25.907Z,69.00
2023-05-12T21:19:52.378Z,68.90
2023-05-12T21:22:18.874Z,69.00
2023-05-12T21:27:14.952Z,69.00
2023-05-12T21:29:41.443Z,69.00
2023-05-12T21:32:08.122Z,69.10
2023-05-12T21:34:34.794Z,69.20
2023-05-12T21:37:01.311Z,69.10
2023-05-12T21:39:27.805Z,69.30
2023-05-12T21:41:54.321Z,69.20
2023-05-12T21:44:20.786Z,69.10
2023-05-12T21:46:47.316Z,69.20
2023-05-12T21:49:13.811Z,69.20
2023-05-12T21:51:40.317Z,69.10
2023-05-12T21:54:06.858Z,69.20
2023-05-12T21:56:33.379Z,69.10
2023-05-12T21:58:59.848Z,69.20
2023-05-12T22:01:26.403Z,69.10
2023-05-12T22:03:53.039Z,69.30
2023-05-12T22:06:19.617Z,69.20
2023-05-12T22:08:46.104Z,69.20
2023-05-12T22:11:12.576Z,69.20
2023-05-12T22:13:39.077Z,69.20
2023-05-12T22:16:05.583Z,69.30
2023-05-12T22:18:32.120Z,69.30
2023-05-12T22:20:58.626Z,69.20
2023-05-12T22:23:25.110Z,69.20
2023-05-12T22:25:51.562Z,69.20
2023-05-12T22:28:18.117Z,69.40
2023-05-12T22:30:44.651Z,69.40
2023-05-12T22:33:11.151Z,69.40
2023-05-12T22:35:37.619Z,69.40
2023-05-12T22:38:04.131Z,69.30
2023-05-12T22:40:30.604Z,69.10
2023-05-12T22:42:57.108Z,69.00
2023-05-12T22:45:23.560Z,69.00
2023-05-12T22:47:50.089Z,68.90
2023-05-12T22:50:16.646Z,68.90
2023-05-12T22:52:43.165Z,68.90
2023-05-12T22:55:09.664Z,69.10
2023-05-12T22:57:36.141Z,69.00
2023-05-12T23:00:02.615Z,69.20
2023-05-12T23:02:29.104Z,69.30
2023-05-12T23:04:55.614Z,69.40
2023-05-12T23:07:22.104Z,69.40
2023-05-12T23:09:48.602Z,69.50
2023-05-12T23:12:15.092Z,69.60
2023-05-12T23:14:41.591Z,69.60
2023-05-12T23:17:08.078Z,70.20
2023-05-12T23:19:34.594Z,69.30
2023-05-12T23:22:01.088Z,69.30
2023-05-12T23:24:33.085Z,69.20
2023-05-12T23:26:59.553Z,69.20
2023-05-12T23:29:26.048Z,69.30
2023-05-12T23:31:52.569Z,69.30
2023-05-12T23:34:19.326Z,69.20
2023-05-12T23:36:45.811Z,69.20
2023-05-12T23:39:12.264Z,69.10
2023-05-12T23:41:38.730Z,69.00
2023-05-12T23:44:05.234Z,69.00
2023-05-12T23:46:31.720Z,69.00
2023-05-12T23:48:58.216Z,69.00
2023-05-12T23:51:24.691Z,69.00
2023-05-12T23:53:51.146Z,69.00
2023-05-12T23:56:17.598Z,68.90
2023-05-12T23:58:44.072Z,69.10
